Terminal Aerodrome Forecast
Issued by NWS Wakefield, VA

Home | Current Version | Previous Version | Text Only | Print | Product List | Glossary On
Versions: 1 2 3 4 5 6 7 8 9 10 11 12 13 14 15 16 17 18 19 20 21 22 23
000
FTUS41 KAKQ 282340
TAFORF
TAF
KORF 282340Z 2900/2924 07009KT 1 1/2SM BR OVC002
     FM290200 05009KT 1SM BR OVC002
      TEMPO 2902/2905 1/2SM FG
     FM290500 05008KT 1SM -SHRA BR OVC002
     FM291200 03008KT 6SM BR OVC003
     FM291700 05006KT P6SM OVC015=

USA.gov is the U.S. government's official web portal to all federal, state and local government web resources and services.